sensor_id;sensor_type;location;lat;lon;timestamp;pressure;altitude;pressure_sealevel;temperature;humidity
69737;BME280;64476;55.004;73.342;2023-04-07T00:01:59;100292.03;;;-0.30;55.41
69737;BME280;64476;55.004;73.342;2023-04-07T00:05:01;100297.06;;;-0.29;55.50
69737;BME280;64476;55.004;73.342;2023-04-07T00:08:38;100324.47;;;-0.26;55.38
69737;BME280;64476;55.004;73.342;2023-04-07T00:12:11;100315.28;;;-0.45;55.28
69737;BME280;64476;55.004;73.342;2023-04-07T00:15:20;100296.25;;;-0.71;55.53
69737;BME280;64476;55.004;73.342;2023-04-07T00:18:21;100338.63;;;-0.46;55.61
69737;BME280;64476;55.004;73.342;2023-04-07T00:21:33;100325.44;;;-0.56;55.96
69737;BME280;64476;55.004;73.342;2023-04-07T00:24:35;100329.78;;;-0.71;56.40
69737;BME280;64476;55.004;73.342;2023-04-07T00:27:36;100339.09;;;-0.68;56.47
69737;BME280;64476;55.004;73.342;2023-04-07T00:31:10;100356.53;;;-0.72;57.86
69737;BME280;64476;55.004;73.342;2023-04-07T00:38:00;100335.41;;;-0.93;56.99
69737;BME280;64476;55.004;73.342;2023-04-07T00:41:13;100335.69;;;-0.97;57.14
69737;BME280;64476;55.004;73.342;2023-04-07T00:44:23;100355.75;;;-1.02;57.10
69737;BME280;64476;55.004;73.342;2023-04-07T00:47:25;100307.91;;;-1.51;57.38
69737;BME280;64476;55.004;73.342;2023-04-07T00:50:26;100337.22;;;-1.38;58.04
69737;BME280;64476;55.004;73.342;2023-04-07T00:53:28;100364.31;;;-1.16;58.32
69737;BME280;64476;55.004;73.342;2023-04-07T00:56:31;100345.31;;;-1.29;58.03
69737;BME280;64476;55.004;73.342;2023-04-07T00:59:33;100218.63;;;-2.26;58.28
69737;BME280;64476;55.004;73.342;2023-04-07T01:06:27;100369.03;;;-1.69;59.06
69737;BME280;64476;55.004;73.342;2023-04-07T01:09:42;100318.34;;;-2.14;59.60
69737;BME280;64476;55.004;73.342;2023-04-07T01:12:54;100386.16;;;-1.68;59.48
69737;BME280;64476;55.004;73.342;2023-04-07T01:16:04;100400.47;;;-1.78;59.00
69737;BME280;64476;55.004;73.342;2023-04-07T01:31:22;100432.91;;;-1.44;59.45
69737;BME280;64476;55.004;73.342;2023-04-07T01:34:28;100432.03;;;-1.59;58.61
69737;BME280;64476;55.004;73.342;2023-04-07T01:38:07;100437.09;;;-1.57;58.38
69737;BME280;64476;55.004;73.342;2023-04-07T01:41:43;100365.50;;;-2.14;58.47
69737;BME280;64476;55.004;73.342;2023-04-07T01:45:18;100373.06;;;-2.11;58.05
69737;BME280;64476;55.004;73.342;2023-04-07T01:48:23;100413.59;;;-1.98;57.92
69737;BME280;64476;55.004;73.342;2023-04-07T01:51:30;100389.75;;;-2.18;57.77
69737;BME280;64476;55.004;73.342;2023-04-07T01:54:33;100472.91;;;-1.68;57.90
69737;BME280;64476;55.004;73.342;2023-04-07T01:57:35;100417.44;;;-1.90;57.95
69737;BME280;64476;55.004;73.342;2023-04-07T02:00:47;100469.94;;;-1.61;58.16
69737;BME280;64476;55.004;73.342;2023-04-07T02:07:55;100458.53;;;-1.88;57.85
69737;BME280;64476;55.004;73.342;2023-04-07T02:11:00;100479.91;;;-1.86;57.23
69737;BME280;64476;55.004;73.342;2023-04-07T02:17:51;100476.63;;;-2.06;56.63
69737;BME280;64476;55.004;73.342;2023-04-07T02:21:26;100419.59;;;-2.47;56.65
69737;BME280;64476;55.004;73.342;2023-04-07T02:28:47;100509.38;;;-1.92;55.65
69737;BME280;64476;55.004;73.342;2023-04-07T02:31:55;100514.28;;;-2.03;54.92
69737;BME280;64476;55.004;73.342;2023-04-07T02:34:57;100424.19;;;-2.69;54.78
69737;BME280;64476;55.004;73.342;2023-04-07T02:37:58;100486.19;;;-2.41;54.78
69737;BME280;64476;55.004;73.342;2023-04-07T02:41:01;100477.09;;;-2.81;53.87
69737;BME280;64476;55.004;73.342;2023-04-07T02:44:04;100559.16;;;-2.42;53.43
69737;BME280;64476;55.004;73.342;2023-04-07T02:47:06;100498.78;;;-2.87;53.76
69737;BME280;64476;55.004;73.342;2023-04-07T02:50:12;100573.03;;;-2.44;53.71
69737;BME280;64476;55.004;73.342;2023-04-07T02:53:18;100540.78;;;-2.69;52.83
69737;BME280;64476;55.004;73.342;2023-04-07T02:56:19;100567.56;;;-2.56;52.14
69737;BME280;64476;55.004;73.342;2023-04-07T02:59:23;100583.00;;;-2.56;52.35
69737;BME280;64476;55.004;73.342;2023-04-07T03:02:25;100575.16;;;-2.52;51.86
69737;BME280;64476;55.004;73.342;2023-04-07T03:05:27;100596.53;;;-2.35;51.73
69737;BME280;64476;55.004;73.342;2023-04-07T03:08:34;100575.06;;;-2.51;51.37
69737;BME280;64476;55.004;73.342;2023-04-07T03:11:41;100511.34;;;-2.98;50.88
69737;BME280;64476;55.004;73.342;2023-04-07T03:14:43;100555.91;;;-2.63;50.95
69737;BME280;64476;55.004;73.342;2023-04-07T03:17:45;100562.28;;;-2.70;50.12
69737;BME280;64476;55.004;73.342;2023-04-07T03:20:47;100529.66;;;-3.04;50.75
69737;BME280;64476;55.004;73.342;2023-04-07T03:23:51;100565.56;;;-3.03;50.58
69737;BME280;64476;55.004;73.342;2023-04-07T03:26:53;100606.59;;;-2.82;50.40
69737;BME280;64476;55.004;73.342;2023-04-07T03:30:32;100610.88;;;-3.00;51.32
69737;BME280;64476;55.004;73.342;2023-04-07T03:37:28;100640.53;;;-2.93;51.17
69737;BME280;64476;55.004;73.342;2023-04-07T03:40:40;100635.69;;;-3.18;50.75
69737;BME280;64476;55.004;73.342;2023-04-07T03:43:45;100629.38;;;-3.30;50.82
69737;BME280;64476;55.004;73.342;2023-04-07T03:46:47;100675.31;;;-3.05;50.64
69737;BME280;64476;55.004;73.342;2023-04-07T03:49:52;100678.69;;;-3.21;50.69
69737;BME280;64476;55.004;73.342;2023-04-07T03:53:07;100674.34;;;-3.40;50.69
69737;BME280;64476;55.004;73.342;2023-04-07T03:56:09;100692.00;;;-3.32;50.92
69737;BME280;64476;55.004;73.342;2023-04-07T03:59:26;100672.53;;;-3.38;50.25
69737;BME280;64476;55.004;73.342;2023-04-07T04:02:36;100715.84;;;-3.10;49.70
69737;BME280;64476;55.004;73.342;2023-04-07T04:05:38;100710.91;;;-3.14;49.47
69737;BME280;64476;55.004;73.342;2023-04-07T04:08:42;100692.22;;;-3.18;49.47
69737;BME280;64476;55.004;73.342;2023-04-07T04:11:45;100740.31;;;-3.01;49.08
69737;BME280;64476;55.004;73.342;2023-04-07T04:14:48;100621.81;;;-3.72;49.29
69737;BME280;64476;55.004;73.342;2023-04-07T04:18:00;100755.88;;;-3.04;49.11
69737;BME280;64476;55.004;73.342;2023-04-07T04:21:12;100742.38;;;-3.09;48.31
69737;BME280;64476;55.004;73.342;2023-04-07T04:24:23;100667.50;;;-3.60;47.32
69737;BME280;64476;55.004;73.342;2023-04-07T10:28:53;101221.00;;;-1.28;28.91
69737;BME280;64476;55.004;73.342;2023-04-07T10:32:01;101152.75;;;-1.59;30.10
69737;BME280;64476;55.004;73.342;2023-04-07T10:35:03;101182.06;;;-1.41;29.70
69737;BME280;64476;55.004;73.342;2023-04-07T10:38:11;101272.28;;;-1.02;29.38
69737;BME280;64476;55.004;73.342;2023-04-07T10:44:55;101224.22;;;-1.42;29.51
69737;BME280;64476;55.004;73.342;2023-04-07T10:48:35;101283.03;;;-1.31;26.66
69737;BME280;64476;55.004;73.342;2023-04-07T11:02:39;101268.97;;;-1.24;29.01
69737;BME280;64476;55.004;73.342;2023-04-07T11:05:41;101296.50;;;-0.86;29.31
69737;BME280;64476;55.004;73.342;2023-04-07T11:08:45;101307.31;;;-0.58;28.52
69737;BME280;64476;55.004;73.342;2023-04-07T11:11:47;101311.84;;;-0.64;26.92
69737;BME280;64476;55.004;73.342;2023-04-07T11:14:56;101315.19;;;-0.62;27.91
69737;BME280;64476;55.004;73.342;2023-04-07T11:18:16;101236.25;;;-1.03;26.96
69737;BME280;64476;55.004;73.342;2023-04-07T11:21:18;101300.03;;;-0.50;28.06
69737;BME280;64476;55.004;73.342;2023-04-07T11:27:59;101324.06;;;0.07;26.52
69737;BME280;64476;55.004;73.342;2023-04-07T11:31:01;101294.38;;;0.33;26.34
69737;BME280;64476;55.004;73.342;2023-04-07T11:34:03;101335.69;;;1.02;25.60
69737;BME280;64476;55.004;73.342;2023-04-07T11:37:37;101274.72;;;0.64;25.58
69737;BME280;64476;55.004;73.342;2023-04-07T11:40:40;101315.25;;;1.14;25.01
69737;BME280;64476;55.004;73.342;2023-04-07T11:43:47;101319.25;;;1.52;25.10
69737;BME280;64476;55.004;73.342;2023-04-07T11:46:56;101346.75;;;1.71;24.75
69737;BME280;64476;55.004;73.342;2023-04-07T11:49:58;101345.34;;;1.32;24.72
69737;BME280;64476;55.004;73.342;2023-04-07T11:52:59;101347.75;;;0.51;24.59
69737;BME280;64476;55.004;73.342;2023-04-07T12:00:10;101364.63;;;-1.10;24.56
69737;BME280;64476;55.004;73.342;2023-04-07T12:03:13;101359.34;;;-1.48;25.36
69737;BME280;64476;55.004;73.342;2023-04-07T12:06:46;101314.28;;;-2.02;25.90
69737;BME280;64476;55.004;73.342;2023-04-07T12:09:54;101317.94;;;-2.29;26.44
69737;BME280;64476;55.004;73.342;2023-04-07T12:12:56;101375.63;;;-2.12;26.74
69737;BME280;64476;55.004;73.342;2023-04-07T12:15:58;101371.09;;;-2.28;26.65
69737;BME280;64476;55.004;73.342;2023-04-07T12:19:00;101347.78;;;-2.71;27.40
69737;BME280;64476;55.004;73.342;2023-04-07T12:22:06;101350.66;;;-2.78;27.61
69737;BME280;64476;55.004;73.342;2023-04-07T12:25:12;101397.56;;;-2.72;27.55
69737;BME280;64476;55.004;73.342;2023-04-07T12:28:14;101400.09;;;-2.95;28.21
69737;BME280;64476;55.004;73.342;2023-04-07T12:31:22;101364.41;;;-3.30;28.32
69737;BME280;64476;55.004;73.342;2023-04-07T12:34:28;101357.09;;;-3.42;28.32
69737;BME280;64476;55.004;73.342;2023-04-07T12:37:29;101366.28;;;-3.61;28.39
69737;BME280;64476;55.004;73.342;2023-04-07T12:40:37;101409.03;;;-3.59;28.34
69737;BME280;64476;55.004;73.342;2023-04-07T12:43:48;101375.16;;;-3.98;28.53
69737;BME280;64476;55.004;73.342;2023-04-07T12:46:50;101422.41;;;-3.76;28.37
69737;BME280;64476;55.004;73.342;2023-04-07T12:49:54;101422.94;;;-3.92;27.77
69737;BME280;64476;55.004;73.342;2023-04-07T12:52:56;101393.59;;;-4.13;27.71
69737;BME280;64476;55.004;73.342;2023-04-07T12:56:15;101431.63;;;-3.98;28.03
69737;BME280;64476;55.004;73.342;2023-04-07T12:59:16;101330.69;;;-4.56;28.05
69737;BME280;64476;55.004;73.342;2023-04-07T13:02:19;101394.03;;;-4.29;28.61
69737;BME280;64476;55.004;73.342;2023-04-07T13:05:21;101447.31;;;-4.07;28.05
69737;BME280;64476;55.004;73.342;2023-04-07T13:08:23;101467.72;;;-4.03;28.65
69737;BME280;64476;55.004;73.342;2023-04-07T13:11:25;101461.22;;;-4.14;28.34
69737;BME280;64476;55.004;73.342;2023-04-07T13:14:33;101439.03;;;-4.48;28.77
69737;BME280;64476;55.004;73.342;2023-04-07T13:17:34;101462.72;;;-4.38;28.75
69737;BME280;64476;55.004;73.342;2023-04-07T13:20:36;101446.84;;;-4.51;28.65
69737;BME280;64476;55.004;73.342;2023-04-07T13:23:38;101437.56;;;-4.57;28.87
69737;BME280;64476;55.004;73.342;2023-04-07T13:26:40;101486.34;;;-4.26;29.22
69737;BME280;64476;55.004;73.342;2023-04-07T13:29:54;101467.22;;;-4.46;28.83
69737;BME280;64476;55.004;73.342;2023-04-07T13:33:00;101423.91;;;-4.88;28.82
69737;BME280;64476;55.004;73.342;2023-04-07T13:36:01;101487.84;;;-4.50;29.08
69737;BME280;64476;55.004;73.342;2023-04-07T13:39:03;101499.91;;;-4.53;28.92
69737;BME280;64476;55.004;73.342;2023-04-07T13:42:05;101449.88;;;-5.02;28.92
69737;BME280;64476;55.004;73.342;2023-04-07T13:45:07;101511.09;;;-4.90;29.03
69737;BME280;64476;55.004;73.342;2023-04-07T13:48:18;101490.69;;;-5.29;29.17
69737;BME280;64476;55.004;73.342;2023-04-07T13:51:19;101410.66;;;-5.76;29.22
69737;BME280;64476;55.004;73.342;2023-04-07T13:54:21;101527.34;;;-5.27;29.37
69737;BME280;64476;55.004;73.342;2023-04-07T13:57:24;101477.22;;;-5.76;29.18
69737;BME280;64476;55.004;73.342;2023-04-07T14:00:25;101525.56;;;-5.62;29.72
69737;BME280;64476;55.004;73.342;2023-04-07T14:03:32;101513.38;;;-5.91;29.77
69737;BME280;64476;55.004;73.342;2023-04-07T14:06:35;101547.91;;;-5.70;29.87
69737;BME280;64476;55.004;73.342;2023-04-07T14:09:42;101445.03;;;-6.28;29.65
69737;BME280;64476;55.004;73.342;2023-04-07T14:12:43;101475.59;;;-6.22;29.70
69737;BME280;64476;55.004;73.342;2023-04-07T14:15:45;101569.22;;;-5.70;29.76
69737;BME280;64476;55.004;73.342;2023-04-07T14:18:48;101564.41;;;-5.83;29.39
69737;BME280;64476;55.004;73.342;2023-04-07T14:21:51;101555.19;;;-5.92;29.81
69737;BME280;64476;55.004;73.342;2023-04-07T14:24:54;101566.09;;;-5.82;29.72
69737;BME280;64476;55.004;73.342;2023-04-07T14:27:56;101503.81;;;-6.26;29.22
69737;BME280;64476;55.004;73.342;2023-04-07T14:30:58;101604.53;;;-5.84;29.36
69737;BME280;64476;55.004;73.342;2023-04-07T14:33:59;101537.22;;;-6.34;29.09
69737;BME280;64476;55.004;73.342;2023-04-07T14:37:01;101600.47;;;-5.94;29.16
69737;BME280;64476;55.004;73.342;2023-04-07T14:40:04;101552.47;;;-6.28;29.13
69737;BME280;64476;55.004;73.342;2023-04-07T14:43:06;101593.91;;;-6.10;29.00
69737;BME280;64476;55.004;73.342;2023-04-07T14:46:18;101605.97;;;-6.15;29.47
69737;BME280;64476;55.004;73.342;2023-04-07T14:49:20;101626.94;;;-5.97;29.19
69737;BME280;64476;55.004;73.342;2023-04-07T14:52:28;101408.44;;;-7.23;29.09
69737;BME280;64476;55.004;73.342;2023-04-07T14:55:30;101551.91;;;-6.45;29.23
69737;BME280;64476;55.004;73.342;2023-04-07T14:58:42;101620.63;;;-6.25;29.54
69737;BME280;64476;55.004;73.342;2023-04-07T15:01:43;101578.44;;;-6.51;29.21
69737;BME280;64476;55.004;73.342;2023-04-07T15:04:54;101641.13;;;-6.27;28.87
69737;BME280;64476;55.004;73.342;2023-04-07T15:12:07;101653.38;;;-6.46;28.83
69737;BME280;64476;55.004;73.342;2023-04-07T15:15:09;101656.81;;;-6.47;28.71
69737;BME280;64476;55.004;73.342;2023-04-07T15:18:43;101668.69;;;-6.44;28.42
69737;BME280;64476;55.004;73.342;2023-04-07T15:21:47;101633.28;;;-6.69;29.17
69737;BME280;64476;55.004;73.342;2023-04-07T15:24:54;101489.00;;;-7.59;28.97
69737;BME280;64476;55.004;73.342;2023-04-07T15:27:55;101586.91;;;-7.01;28.66
69737;BME280;64476;55.004;73.342;2023-04-07T15:30:58;101675.75;;;-6.60;29.06
69737;BME280;64476;55.004;73.342;2023-04-07T15:34:42;101704.00;;;-6.69;28.42
69737;BME280;64476;55.004;73.342;2023-04-07T15:37:44;101687.16;;;-6.82;28.67
69737;BME280;64476;55.004;73.342;2023-04-07T15:40:46;101708.31;;;-6.71;29.02
69737;BME280;64476;55.004;73.342;2023-04-07T15:43:49;101701.56;;;-6.75;28.93
69737;BME280;64476;55.004;73.342;2023-04-07T15:46:51;101704.13;;;-6.78;29.27
69737;BME280;64476;55.004;73.342;2023-04-07T15:50:08;101725.28;;;-6.67;28.98
69737;BME280;64476;55.004;73.342;2023-04-07T15:53:10;101718.41;;;-6.63;29.49
69737;BME280;64476;55.004;73.342;2023-04-07T15:56:12;101725.19;;;-6.59;29.21
69737;BME280;64476;55.004;73.342;2023-04-07T15:59:18;101712.50;;;-6.67;29.66
69737;BME280;64476;55.004;73.342;2023-04-07T16:02:19;101674.66;;;-7.04;28.70
69737;BME280;64476;55.004;73.342;2023-04-07T16:05:32;101667.09;;;-7.11;29.29
69737;BME280;64476;55.004;73.342;2023-04-07T16:08:33;101743.25;;;-6.72;28.98
69737;BME280;64476;55.004;73.342;2023-04-07T16:11:45;101706.00;;;-6.91;28.88
69737;BME280;64476;55.004;73.342;2023-04-07T16:14:54;101743.25;;;-6.72;28.79
69737;BME280;64476;55.004;73.342;2023-04-07T16:17:55;101726.31;;;-6.80;28.53
69737;BME280;64476;55.004;73.342;2023-04-07T16:20:57;101761.88;;;-6.63;28.62
69737;BME280;64476;55.004;73.342;2023-04-07T16:31:35;101779.03;;;-6.73;28.00
69737;BME280;64476;55.004;73.342;2023-04-07T16:34:43;101758.09;;;-6.98;28.43
69737;BME280;64476;55.004;73.342;2023-04-07T16:41:57;101789.38;;;-6.79;28.19
69737;BME280;64476;55.004;73.342;2023-04-07T16:45:00;101786.91;;;-6.87;28.28
69737;BME280;64476;55.004;73.342;2023-04-07T16:48:33;101790.31;;;-6.86;27.64
69737;BME280;64476;55.004;73.342;2023-04-07T16:51:40;101797.06;;;-6.82;27.93
69737;BME280;64476;55.004;73.342;2023-04-07T16:54:41;101809.88;;;-6.85;28.33
69737;BME280;64476;55.004;73.342;2023-04-07T16:57:53;101760.84;;;-7.18;28.18
69737;BME280;64476;55.004;73.342;2023-04-07T17:00:55;101800.66;;;-6.99;28.36
69737;BME280;64476;55.004;73.342;2023-04-07T17:04:33;101814.16;;;-6.87;27.94
69737;BME280;64476;55.004;73.342;2023-04-07T17:07:35;101796.41;;;-7.00;28.17
69737;BME280;64476;55.004;73.342;2023-04-07T17:10:37;101816.78;;;-6.95;28.36
69737;BME280;64476;55.004;73.342;2023-04-07T17:13:45;101816.78;;;-6.95;28.07
69737;BME280;64476;55.004;73.342;2023-04-07T17:16:49;101832.91;;;-6.88;28.14
69737;BME280;64476;55.004;73.342;2023-04-07T17:19:53;101755.97;;;-7.40;28.60
69737;BME280;64476;55.004;73.342;2023-04-07T17:22:55;101788.88;;;-7.09;28.30
69737;BME280;64476;55.004;73.342;2023-04-07T17:25:58;101828.56;;;-6.79;28.58
69737;BME280;64476;55.004;73.342;2023-04-07T17:36:36;101755.75;;;-7.17;28.42
69737;BME280;64476;55.004;73.342;2023-04-07T17:39:53;101829.50;;;-6.89;28.11
69737;BME280;64476;55.004;73.342;2023-04-07T17:42:55;101790.56;;;-7.11;28.07
69737;BME280;64476;55.004;73.342;2023-04-07T17:46:00;101784.66;;;-7.14;28.39
69737;BME280;64476;55.004;73.342;2023-04-07T17:49:11;101822.72;;;-6.92;28.03
69737;BME280;64476;55.004;73.342;2023-04-07T17:52:13;101838.94;;;-6.94;28.15
69737;BME280;64476;55.004;73.342;2023-04-07T17:55:16;101830.63;;;-7.11;28.22
69737;BME280;64476;55.004;73.342;2023-04-07T18:02:06;101835.81;;;-7.19;28.53
69737;BME280;64476;55.004;73.342;2023-04-07T18:05:10;101833.25;;;-7.19;28.22
69737;BME280;64476;55.004;73.342;2023-04-07T18:08:12;101864.78;;;-7.20;28.10
69737;BME280;64476;55.004;73.342;2023-04-07T18:11:15;101802.16;;;-7.62;27.99
69737;BME280;64476;55.004;73.342;2023-04-07T18:14:17;101863.91;;;-7.21;28.30
69737;BME280;64476;55.004;73.342;2023-04-07T18:17:20;101759.00;;;-7.89;28.16
69737;BME280;64476;55.004;73.342;2023-04-07T18:20:27;101853.00;;;-7.36;28.45
69737;BME280;64476;55.004;73.342;2023-04-07T18:23:36;101855.72;;;-7.53;28.44
69737;BME280;64476;55.004;73.342;2023-04-07T18:26:37;101876.81;;;-7.36;28.73
69737;BME280;64476;55.004;73.342;2023-04-07T18:29:39;101867.41;;;-7.29;28.59
69737;BME280;64476;55.004;73.342;2023-04-07T18:32:41;101862.31;;;-7.31;28.86
69737;BME280;64476;55.004;73.342;2023-04-07T18:35:48;101862.38;;;-7.40;28.99
69737;BME280;64476;55.004;73.342;2023-04-07T18:39:28;101851.41;;;-7.48;28.48
69737;BME280;64476;55.004;73.342;2023-04-07T18:43:02;101889.59;;;-7.36;28.19
69737;BME280;64476;55.004;73.342;2023-04-07T18:46:04;101876.09;;;-7.52;28.64
69737;BME280;64476;55.004;73.342;2023-04-07T18:49:08;101893.06;;;-7.42;28.96
69737;BME280;64476;55.004;73.342;2023-04-07T18:52:20;101882.84;;;-7.46;28.76
69737;BME280;64476;55.004;73.342;2023-04-07T18:55:26;101828.66;;;-7.80;28.75
69737;BME280;64476;55.004;73.342;2023-04-07T18:58:28;101804.97;;;-7.96;28.77
69737;BME280;64476;55.004;73.342;2023-04-07T19:01:36;101823.59;;;-7.83;28.77
69737;BME280;64476;55.004;73.342;2023-04-07T19:04:39;101886.28;;;-7.47;28.58
69737;BME280;64476;55.004;73.342;2023-04-07T19:07:40;101893.81;;;-7.32;29.12
69737;BME280;64476;55.004;73.342;2023-04-07T19:10:42;101907.38;;;-7.24;28.85
69737;BME280;64476;55.004;73.342;2023-04-07T19:13:52;101773.50;;;-7.95;29.04
69737;BME280;64476;55.004;73.342;2023-04-07T19:16:56;101825.97;;;-7.62;28.74
69737;BME280;64476;55.004;73.342;2023-04-07T19:19:58;101883.66;;;-7.40;29.13
69737;BME280;64476;55.004;73.342;2023-04-07T19:23:00;101859.19;;;-7.67;29.46
69737;BME280;64476;55.004;73.342;2023-04-07T19:26:38;101908.31;;;-7.35;29.54
69737;BME280;64476;55.004;73.342;2023-04-07T19:29:53;101876.16;;;-7.61;28.84
69737;BME280;64476;55.004;73.342;2023-04-07T19:32:55;101899.88;;;-7.47;29.35
69737;BME280;64476;55.004;73.342;2023-04-07T19:35:57;101917.69;;;-7.39;28.85
69737;BME280;64476;55.004;73.342;2023-04-07T19:38:59;101930.53;;;-7.45;29.44
69737;BME280;64476;55.004;73.342;2023-04-07T19:42:00;101927.16;;;-7.50;29.62
69737;BME280;64476;55.004;73.342;2023-04-07T19:45:02;101903.44;;;-7.66;29.25
69737;BME280;64476;55.004;73.342;2023-04-07T19:48:10;101850.06;;;-7.98;29.49
69737;BME280;64476;55.004;73.342;2023-04-07T19:51:45;101919.59;;;-7.62;29.81
69737;BME280;64476;55.004;73.342;2023-04-07T19:55:19;101930.69;;;-7.67;29.80
69737;BME280;64476;55.004;73.342;2023-04-07T19:58:21;101924.72;;;-7.67;29.58
69737;BME280;64476;55.004;73.342;2023-04-07T20:01:29;101857.78;;;-8.07;29.95
69737;BME280;64476;55.004;73.342;2023-04-07T20:04:41;101910.34;;;-7.80;29.95
69737;BME280;64476;55.004;73.342;2023-04-07T20:07:42;101934.91;;;-7.64;29.75
69737;BME280;64476;55.004;73.342;2023-04-07T20:10:54;101905.25;;;-7.83;29.93
69737;BME280;64476;55.004;73.342;2023-04-07T20:13:56;101896.72;;;-7.81;29.89
69737;BME280;64476;55.004;73.342;2023-04-07T20:17:29;101830.66;;;-8.22;30.25
69737;BME280;64476;55.004;73.342;2023-04-07T20:20:36;101828.03;;;-8.13;30.20
69737;BME280;64476;55.004;73.342;2023-04-07T20:23:43;101905.94;;;-7.61;30.05
69737;BME280;64476;55.004;73.342;2023-04-07T20:26:45;101924.66;;;-7.59;30.42
69737;BME280;64476;55.004;73.342;2023-04-07T20:29:53;101900.06;;;-7.73;30.30
69737;BME280;64476;55.004;73.342;2023-04-07T20:37:09;101940.81;;;-7.57;30.20
69737;BME280;64476;55.004;73.342;2023-04-07T20:40:14;101894.16;;;-7.78;30.50
69737;BME280;64476;55.004;73.342;2023-04-07T20:43:23;101927.28;;;-7.69;30.43
69737;BME280;64476;55.004;73.342;2023-04-07T20:46:25;101915.50;;;-7.91;30.37
69737;BME280;64476;55.004;73.342;2023-04-07T20:49:26;101924.81;;;-7.87;30.39
69737;BME280;64476;55.004;73.342;2023-04-07T20:52:28;101946.00;;;-7.67;30.32
69737;BME280;64476;55.004;73.342;2023-04-07T20:59:08;101944.31;;;-7.71;30.46
69737;BME280;64476;55.004;73.342;2023-04-07T21:02:14;101851.03;;;-8.18;31.25
69737;BME280;64476;55.004;73.342;2023-04-07T21:05:18;101909.56;;;-7.90;30.82
69737;BME280;64476;55.004;73.342;2023-04-07T21:08:20;101920.56;;;-7.79;30.70
69737;BME280;64476;55.004;73.342;2023-04-07T21:11:37;101934.06;;;-7.66;30.79
69737;BME280;64476;55.004;73.342;2023-04-07T21:14:43;101911.13;;;-7.71;30.84
69737;BME280;64476;55.004;73.342;2023-04-07T21:17:45;101948.53;;;-7.63;30.79
69737;BME280;64476;55.004;73.342;2023-04-07T21:20:54;101932.47;;;-7.81;30.81
69737;BME280;64476;55.004;73.342;2023-04-07T21:23:56;101943.50;;;-7.77;30.75
69737;BME280;64476;55.004;73.342;2023-04-07T21:30:32;101896.09;;;-8.15;31.17
69737;BME280;64476;55.004;73.342;2023-04-07T21:34:07;101934.22;;;-7.89;31.49
69737;BME280;64476;55.004;73.342;2023-04-07T21:37:09;101943.53;;;-7.85;31.51
69737;BME280;64476;55.004;73.342;2023-04-07T21:40:11;101917.22;;;-7.98;31.49
69737;BME280;64476;55.004;73.342;2023-04-07T21:43:13;101950.38;;;-7.92;31.79
69737;BME280;64476;55.004;73.342;2023-04-07T21:46:15;101946.13;;;-7.93;31.65
69737;BME280;64476;55.004;73.342;2023-04-07T21:49:17;101899.50;;;-8.19;31.77
69737;BME280;64476;55.004;73.342;2023-04-07T21:52:22;101929.13;;;-7.95;31.76
69737;BME280;64476;55.004;73.342;2023-04-07T21:55:24;101910.50;;;-8.08;31.50
69737;BME280;64476;55.004;73.342;2023-04-07T21:58:25;101952.09;;;-7.92;31.78
69737;BME280;64476;55.004;73.342;2023-04-07T22:01:27;101958.91;;;-7.93;31.92
69737;BME280;64476;55.004;73.342;2023-04-07T22:07:41;101949.50;;;-7.86;31.88
69737;BME280;64476;55.004;73.342;2023-04-07T22:10:42;101966.47;;;-7.74;31.99
69737;BME280;64476;55.004;73.342;2023-04-07T22:13:55;101939.28;;;-7.88;32.10
69737;BME280;64476;55.004;73.342;2023-04-07T22:17:01;101846.03;;;-8.39;31.72
69737;BME280;64476;55.004;73.342;2023-04-07T22:20:03;101965.56;;;-7.69;32.20
69737;BME280;64476;55.004;73.342;2023-04-07T22:23:09;101961.34;;;-7.76;32.04
69737;BME280;64476;55.004;73.342;2023-04-07T22:26:15;101979.22;;;-7.74;32.36
69737;BME280;64476;55.004;73.342;2023-04-07T22:29:21;101975.81;;;-7.75;32.65
69737;BME280;64476;55.004;73.342;2023-04-07T22:32:32;101941.09;;;-8.00;32.27
69737;BME280;64476;55.004;73.342;2023-04-07T22:35:34;101926.63;;;-8.01;32.85
69737;BME280;64476;55.004;73.342;2023-04-07T22:38:40;101976.66;;;-7.73;33.13
69737;BME280;64476;55.004;73.342;2023-04-07T22:41:46;101910.56;;;-8.16;32.91
69737;BME280;64476;55.004;73.342;2023-04-07T22:44:48;101948.72;;;-7.97;32.78
69737;BME280;64476;55.004;73.342;2023-04-07T22:47:49;101901.22;;;-8.23;33.28
69737;BME280;64476;55.004;73.342;2023-04-07T22:50:51;101973.28;;;-7.75;33.03
69737;BME280;64476;55.004;73.342;2023-04-07T22:54:03;101985.97;;;-7.69;32.72
69737;BME280;64476;55.004;73.342;2023-04-07T22:57:12;101934.28;;;-8.03;33.16
69737;BME280;64476;55.004;73.342;2023-04-07T23:00:23;101957.19;;;-7.89;33.31
69737;BME280;64476;55.004;73.342;2023-04-07T23:03:25;101936.78;;;-7.95;32.91
69737;BME280;64476;55.004;73.342;2023-04-07T23:06:28;101890.22;;;-8.29;33.36
69737;BME280;64476;55.004;73.342;2023-04-07T23:09:41;101997.13;;;-7.79;33.50
69737;BME280;64476;55.004;73.342;2023-04-07T23:12:51;102013.25;;;-7.77;33.74
69737;BME280;64476;55.004;73.342;2023-04-07T23:16:04;101938.59;;;-8.17;33.27
69737;BME280;64476;55.004;73.342;2023-04-07T23:19:06;101940.28;;;-8.13;34.11
69737;BME280;64476;55.004;73.342;2023-04-07T23:22:12;101948.75;;;-8.03;33.79
69737;BME280;64476;55.004;73.342;2023-04-07T23:25:14;102011.50;;;-7.64;33.78
69737;BME280;64476;55.004;73.342;2023-04-07T23:28:15;101981.03;;;-7.96;33.98
69737;BME280;64476;55.004;73.342;2023-04-07T23:31:21;101997.22;;;-8.03;34.32
69737;BME280;64476;55.004;73.342;2023-04-07T23:34:31;101947.19;;;-8.33;34.12
69737;BME280;64476;55.004;73.342;2023-04-07T23:37:33;101949.69;;;-8.27;34.16
69737;BME280;64476;55.004;73.342;2023-04-07T23:40:35;101960.72;;;-8.22;33.87
69737;BME280;64476;55.004;73.342;2023-04-07T23:43:40;101942.06;;;-8.35;33.74
69737;BME280;64476;55.004;73.342;2023-04-07T23:46:46;101987.84;;;-8.00;33.79